Time;durP1;ratioP1;P1;durP2;ratioP2;P2;SDS_P1;SDS_P2;PMS_P1;PMS_P2;Temp;Humidity;BMP_temperature;BMP_pressure;BME280_temperature;BME280_humidity;BME280_pressure;Samples;Min_cycle;Max_cycle;Signal;HPM_P1;HPM_P2
2022/08/01 00:02:12;;;;;;;1.30;1.20;;;;;;;22.71;66.21;95425.28;4293635;33;20212;-57
2022/08/01 00:04:37;;;;;;;2.23;1.03;;;;;;;22.74;66.96;95421.06;4296280;33;20179;-58
2022/08/01 00:07:03;;;;;;;0.43;0.43;;;;;;;22.74;66.53;95426.47;4276397;33;20187;-56
2022/08/01 00:09:29;;;;;;;0.67;0.67;;;;;;;22.74;66.36;95429.19;4292895;33;20198;-58
2022/08/01 00:11:54;;;;;;;0.93;0.60;;;;;;;22.72;65.55;95429.53;4293979;33;20179;-57
2022/08/01 00:14:20;;;;;;;0.90;0.90;;;;;;;22.69;65.96;95424.09;4292892;33;20191;-58
2022/08/01 00:16:45;;;;;;;0.63;0.60;;;;;;;22.68;66.00;95428.72;4294987;33;20195;-57
2022/08/01 00:19:10;;;;;;;2.47;0.50;;;;;;;22.70;nan;95436.47;4282976;33;20257;-57
2022/08/01 00:21:36;;;;;;;0.30;0.30;;;;;;;22.64;65.59;95430.63;4288402;33;20198;-58
2022/08/01 00:24:01;;;;;;;0.50;0.50;;;;;;;22.68;65.89;95433.34;4291714;33;20186;-58
2022/08/01 00:26:26;;;;;;;0.60;0.60;;;;;;;22.62;64.99;95438.31;4294245;33;20253;-55
2022/08/01 00:28:52;;;;;;;0.63;0.63;;;;;;;22.65;65.89;95445.72;4275359;33;20253;-57
2022/08/01 00:31:17;;;;;;;0.30;0.30;;;;;;;22.61;65.34;95436.75;4285396;33;20212;-56
2022/08/01 00:33:42;;;;;;;0.67;0.67;;;;;;;22.53;65.26;95444.00;4283642;33;20211;-57
2022/08/01 00:36:08;;;;;;;0.80;0.80;;;;;;;22.60;66.27;95446.03;4284960;33;20281;-58
2022/08/01 00:38:33;;;;;;;0.40;0.40;;;;;;;22.53;65.14;95435.87;4289681;33;20234;-56
2022/08/01 00:40:59;;;;;;;0.60;0.60;;;;;;;22.56;66.03;95445.97;4294668;33;20237;-60
2022/08/01 00:43:24;;;;;;;0.63;0.63;;;;;;;22.61;66.58;95442.94;4279032;33;20202;-56
2022/08/01 00:45:49;;;;;;;0.40;0.40;;;;;;;22.57;65.30;95436.72;4273498;33;20241;-55
2022/08/01 00:48:15;;;;;;;0.53;0.53;;;;;;;22.58;64.33;95435.56;4270663;33;20190;-56
2022/08/01 00:50:40;;;;;;;0.40;0.40;;;;;;;22.55;64.71;95441.72;4287004;33;20186;-57
2022/08/01 00:53:07;;;;;;;18.60;0.87;;;;;;;22.59;65.62;95442.53;4272442;33;20186;-55
2022/08/01 00:55:32;;;;;;;0.53;0.53;;;;;;;22.60;65.70;95441.38;4272220;33;20226;-57
2022/08/01 00:57:58;;;;;;;0.40;0.40;;;;;;;22.62;65.94;95438.31;4287202;33;20195;-54
2022/08/01 01:00:25;;;;;;;0.30;0.30;;;;;;;22.60;64.48;95435.19;4284312;33;20237;-57
2022/08/01 01:02:51;;;;;;;0.33;0.33;;;;;;;22.57;63.83;95438.62;4286021;33;20194;-56
2022/08/01 01:05:16;;;;;;;0.33;0.33;;;;;;;22.59;64.50;95439.84;4288491;33;20209;-52
2022/08/01 01:07:48;;;;;;;0.70;0.70;;;;;;;22.53;63.49;95433.19;4285085;33;20210;-56
2022/08/01 01:10:31;;;;;;;0.20;0.20;;;;;;;22.59;65.39;95436.34;4289890;33;20253;-56
2022/08/01 01:13:05;;;;;;;0.37;0.37;;;;;;;22.54;64.09;95439.38;4286403;33;20194;-55
2022/08/01 01:15:40;;;;;;;0.33;0.33;;;;;;;22.55;63.68;95441.72;4283396;33;20237;-54
2022/08/01 01:18:17;;;;;;;0.77;0.63;;;;;;;22.54;64.42;95450.97;4285614;33;20194;-56
2022/08/01 01:21:13;;;;;;;0.73;0.73;;;;;;;22.51;63.74;95448.22;4292994;33;20193;-54
2022/08/01 01:23:45;;;;;;;0.67;0.67;;;;;;;22.54;65.60;95442.84;4289842;33;20204;-56
2022/08/01 01:26:28;;;;;;;0.40;0.40;;;;;;;22.52;64.42;95450.53;4290910;33;20246;-56
2022/08/01 01:29:06;;;;;;;0.57;0.57;;;;;;;22.48;63.70;95444.31;4284908;33;20197;-54
2022/08/01 01:31:40;;;;;;;0.80;0.80;;;;;;;22.56;65.31;95450.59;4283186;33;20221;-53
2022/08/01 01:34:07;;;;;;;0.47;0.47;;;;;;;22.52;64.52;95447.06;4285225;33;20245;-57
2022/08/01 01:36:34;;;;;;;0.57;0.57;;;;;;;22.50;65.07;95447.44;4269493;33;20201;-55
2022/08/01 01:39:00;;;;;;;1.17;1.07;;;;;;;22.49;64.20;95453.19;4290364;33;20199;-56
2022/08/01 01:41:27;;;;;;;0.27;0.27;;;;;;;22.47;65.49;95445.44;4287706;33;20194;-57
2022/08/01 01:43:54;;;;;;;0.90;0.53;;;;;;;22.48;64.05;95452.41;4288828;33;20229;-55
2022/08/01 01:46:23;;;;;;;0.77;0.77;;;;;;;22.39;63.81;95457.34;4284846;33;20250;-54
2022/08/01 01:48:50;;;;;;;3.40;1.43;;;;;;;22.46;65.05;95454.69;4280426;33;20419;-55
2022/08/01 01:51:16;;;;;;;0.70;0.70;;;;;;;22.48;65.04;95455.12;4285956;33;20237;-56
2022/08/01 01:53:45;;;;;;;0.40;0.40;;;;;;;22.38;63.99;95453.06;4285185;33;20190;-57
2022/08/01 01:56:12;;;;;;;0.77;0.77;;;;;;;22.35;63.61;95458.41;4271132;33;20203;-56
2022/08/01 01:58:39;;;;;;;0.67;0.67;;;;;;;22.30;64.03;95456.81;4283004;33;20217;-56
2022/08/01 02:01:06;;;;;;;0.90;0.90;;;;;;;22.43;65.69;95454.69;4274527;33;20249;-57
2022/08/01 02:03:36;;;;;;;0.70;0.70;;;;;;;22.37;64.96;95456.91;4271816;33;20203;-56
2022/08/01 02:06:06;;;;;;;0.23;0.23;;;;;;;22.29;63.87;95456.03;4284308;33;20199;-56
2022/08/01 02:08:33;;;;;;;0.83;0.83;;;;;;;22.36;64.99;95458.06;4271673;33;20190;-56
2022/08/01 02:11:18;;;;;;;0.50;0.50;;;;;;;22.31;63.08;95455.66;4284326;33;20279;-60
2022/08/01 02:13:47;;;;;;;0.40;0.40;;;;;;;22.32;64.15;95459.94;4267338;33;20301;-56
2022/08/01 02:16:14;;;;;;;0.77;0.63;;;;;;;22.29;63.68;95466.06;4267628;33;20191;-55
2022/08/01 02:18:41;;;;;;;1.13;0.40;;;;;;;22.36;65.49;95457.28;4289035;33;20241;-54
2022/08/01 02:21:11;;;;;;;0.57;0.57;;;;;;;22.28;63.05;95467.19;4287245;33;20213;-56
2022/08/01 02:23:38;;;;;;;0.57;0.57;;;;;;;22.35;64.81;95464.59;4272919;33;20198;-57
2022/08/01 02:26:12;;;;;;;1.30;1.20;;;;;;;22.33;63.54;95468.81;4278492;33;20205;-52
2022/08/01 02:28:49;;;;;;;0.60;0.60;;;;;;;22.34;64.64;95462.28;4271835;33;20210;-56
2022/08/01 02:31:18;;;;;;;0.70;0.70;;;;;;;22.28;63.19;95464.50;4271019;33;20194;-56
2022/08/01 02:33:50;;;;;;;0.20;0.20;;;;;;;22.28;63.75;95473.37;4284514;33;20209;-55
2022/08/01 02:36:16;;;;;;;0.53;0.53;;;;;;;22.20;62.19;95470.97;4293092;33;20206;-57
2022/08/01 02:38:45;;;;;;;0.70;0.70;;;;;;;22.26;63.38;95466.78;4284207;33;20202;-54
2022/08/01 02:41:16;;;;;;;0.67;0.67;;;;;;;22.31;64.54;95471.09;4270759;33;20214;-55
2022/08/01 02:43:46;;;;;;;0.80;0.80;;;;;;;22.31;63.92;95473.81;4288882;33;20186;-54
2022/08/01 02:46:21;;;;;;;0.50;0.50;;;;;;;22.31;64.11;95474.59;4294753;33;20256;-56
2022/08/01 02:48:50;;;;;;;0.93;0.93;;;;;;;22.31;64.12;95463.78;4284678;33;20198;-57
2022/08/01 02:51:17;;;;;;;0.80;0.80;;;;;;;22.33;63.09;95466.91;4282985;33;20191;-55
2022/08/01 02:53:45;;;;;;;0.67;0.67;;;;;;;22.29;62.86;95476.88;4283545;33;20191;-56
2022/08/01 02:56:13;;;;;;;1.10;0.97;;;;;;;22.31;63.82;95474.59;4285183;33;20186;-56
2022/08/01 02:58:40;;;;;;;0.77;0.77;;;;;;;22.31;63.94;95479.22;4286280;33;20217;-56
2022/08/01 03:01:06;;;;;;;1.20;1.10;;;;;;;22.28;63.54;95475.31;4283785;33;20290;-51
2022/08/01 03:03:33;;;;;;;0.60;0.60;;;;;;;22.25;63.21;95481.44;4283636;33;20262;-56
2022/08/01 03:06:01;;;;;;;0.50;0.50;;;;;;;22.21;62.46;95480.63;4287098;33;20198;-62
2022/08/01 03:08:29;;;;;;;0.70;0.70;;;;;;;22.18;62.83;95478.66;4287919;33;20209;-56
2022/08/01 03:10:56;;;;;;;0.70;0.70;;;;;;;22.14;62.52;95473.19;4284082;33;20249;-57
2022/08/01 03:13:22;;;;;;;0.60;0.60;;;;;;;22.20;63.98;95477.16;4270991;33;20196;-56
2022/08/01 03:15:50;;;;;;;0.20;0.20;;;;;;;22.18;62.81;95475.94;4283364;33;20202;-55
2022/08/01 03:18:17;;;;;;;0.73;0.73;;;;;;;22.15;62.30;95482.84;4282655;33;20290;-52
2022/08/01 03:20:43;;;;;;;0.73;0.40;;;;;;;22.16;63.71;95481.72;4282581;33;20187;-56
2022/08/01 03:23:11;;;;;;;1.57;0.70;;;;;;;22.23;64.19;95484.53;4282742;33;20178;-56
2022/08/01 03:25:40;;;;;;;0.60;0.60;;;;;;;22.19;61.96;95481.00;4299521;33;20233;-55
2022/08/01 03:28:08;;;;;;;2.50;1.43;;;;;;;22.18;62.90;95492.16;4275767;33;20241;-56
2022/08/01 03:30:36;;;;;;;1.20;1.20;;;;;;;22.11;63.86;95486.63;4286379;33;20217;-55
2022/08/01 03:33:02;;;;;;;3.50;1.23;;;;;;;22.14;63.89;95489.41;4286289;33;20203;-56
2022/08/01 03:35:33;;;;;;;1.33;0.77;;;;;;;22.17;64.15;95483.28;4277708;33;20230;-54
2022/08/01 03:38:00;;;;;;;1.43;0.90;;;;;;;22.20;64.19;95487.19;4290052;33;20214;-55
2022/08/01 03:40:38;;;;;;;1.27;1.20;;;;;;;22.16;62.72;95489.81;4284525;33;20206;-56
2022/08/01 03:43:09;;;;;;;0.47;0.47;;;;;;;22.10;62.08;95487.78;4287062;33;20257;-54
2022/08/01 03:45:38;;;;;;;1.30;0.87;;;;;;;22.08;61.54;95496.25;4284856;33;20195;-55
2022/08/01 03:48:16;;;;;;;0.37;0.37;;;;;;;22.08;61.66;95487.34;4285981;33;20314;-54
2022/08/01 03:50:45;;;;;;;1.27;0.63;;;;;;;22.06;62.93;95492.34;4285256;33;20220;-56
2022/08/01 03:53:12;;;;;;;0.77;0.67;;;;;;;22.01;62.77;95498.06;4274825;33;20199;-56
2022/08/01 03:55:40;;;;;;;1.50;1.30;;;;;;;22.01;63.05;95500.78;4284848;33;20257;-56
2022/08/01 03:58:07;;;;;;;0.50;0.50;;;;;;;22.04;64.12;95502.72;4273428;33;20187;-55
2022/08/01 04:00:33;;;;;;;4.80;0.90;;;;;;;22.07;62.32;95504.72;4255251;33;20170;-55
2022/08/01 04:02:59;;;;;;;1.23;1.07;;;;;;;22.01;61.42;95515.06;4272088;33;20357;-56
2022/08/01 04:05:25;;;;;;;0.40;0.40;;;;;;;22.04;62.17;95513.53;4285604;33;20211;-56
2022/08/01 04:07:57;;;;;;;0.70;0.70;;;;;;;22.02;61.93;95508.53;4275922;33;20190;-52
2022/08/01 04:10:23;;;;;;;0.40;0.40;;;;;;;22.05;62.55;95515.09;4273012;33;20186;-55
2022/08/01 04:12:49;;;;;;;0.23;0.23;;;;;;;22.01;62.20;95519.69;4277277;33;27194;-55
2022/08/01 04:15:14;;;;;;;0.53;0.53;;;;;;;21.92;62.60;95512.56;4288255;33;20272;-54
2022/08/01 04:17:40;;;;;;;0.20;0.20;;;;;;;21.93;62.42;95518.75;4287440;33;20315;-56
2022/08/01 04:20:05;;;;;;;0.60;0.60;;;;;;;21.92;62.52;95520.69;4288183;33;20213;-54
2022/08/01 04:22:31;;;;;;;0.30;0.30;;;;;;;21.92;62.19;95519.91;4277093;33;20186;-54
2022/08/01 04:24:58;;;;;;;0.70;0.70;;;;;;;22.01;61.46;95527.81;4290649;33;20317;-56
2022/08/01 04:27:29;;;;;;;0.40;0.40;;;;;;;22.01;62.91;95525.09;4288058;33;20208;-55
2022/08/01 04:29:57;;;;;;;3.17;0.83;;;;;;;22.00;61.93;95527.03;4275880;33;20198;-53
2022/08/01 04:32:24;;;;;;;0.83;0.83;;;;;;;21.99;63.24;95536.25;4287841;33;20216;-54
2022/08/01 04:34:50;;;;;;;0.33;0.33;;;;;;;21.93;61.51;95543.84;4272152;33;20274;-54
2022/08/01 04:37:18;;;;;;;0.77;0.77;;;;;;;21.95;62.59;95538.88;4272029;33;20238;-54
2022/08/01 04:39:46;;;;;;;0.50;0.50;;;;;;;21.93;62.52;95545.78;4282868;33;20190;-56
2022/08/01 04:42:15;;;;;;;0.60;0.60;;;;;;;21.87;61.60;95537.19;4286548;33;20241;-54
2022/08/01 04:44:42;;;;;;;0.50;0.50;;;;;;;21.93;62.62;95541.16;4289330;33;20221;-57
2022/08/01 04:47:12;;;;;;;0.60;0.60;;;;;;;21.88;61.98;95544.16;4254780;33;20187;-55
2022/08/01 04:49:39;;;;;;;0.37;0.37;;;;;;;21.78;62.35;95547.47;4276036;33;20186;-56
2022/08/01 04:52:06;;;;;;;0.30;0.30;;;;;;;21.83;63.23;95549.84;4275638;33;20206;-55
2022/08/01 04:54:36;;;;;;;0.63;0.63;;;;;;;21.87;62.48;95548.00;4283159;33;20213;-55
2022/08/01 04:57:03;;;;;;;0.53;0.53;;;;;;;21.93;62.08;95551.19;4273015;33;20218;-55
2022/08/01 04:59:40;;;;;;;1.00;1.00;;;;;;;21.94;61.91;95550.03;4285480;33;20241;-55
2022/08/01 05:02:18;;;;;;;0.97;0.97;;;;;;;21.94;62.15;95548.13;4284890;33;20230;-56
2022/08/01 05:04:45;;;;;;;0.33;0.33;;;;;;;21.86;62.05;95549.13;4285980;33;20211;-54
2022/08/01 05:07:15;;;;;;;13.80;1.63;;;;;;;21.83;62.12;95551.75;4261389;33;20238;-55
2022/08/01 05:09:42;;;;;;;0.40;0.40;;;;;;;21.82;62.88;95558.34;4265031;33;20198;-56
2022/08/01 05:12:10;;;;;;;0.40;0.40;;;;;;;21.72;61.37;95556.22;4284473;33;20194;-55
2022/08/01 05:14:36;;;;;;;0.40;0.40;;;;;;;21.81;62.46;95554.06;4270909;33;20191;-54
2022/08/01 05:17:03;;;;;;;0.87;0.87;;;;;;;21.71;62.42;95555.44;4274728;33;20242;-55
2022/08/01 05:19:36;;;;;;;5.83;1.50;;;;;;;21.60;63.74;95559.88;4287586;33;20199;-62
2022/08/01 05:22:05;;;;;;;1.20;1.10;;;;;;;21.60;63.15;95557.94;4285116;33;20217;-54
2022/08/01 05:24:31;;;;;;;0.50;0.50;;;;;;;21.58;63.14;95551.34;4285120;33;20243;-55
2022/08/01 05:26:56;;;;;;;0.87;0.87;;;;;;;21.73;63.78;95563.16;4287894;33;20206;-56
2022/08/01 05:29:22;;;;;;;7.27;1.00;;;;;;;21.77;63.57;95559.41;4285873;33;20187;-55
2022/08/01 05:31:47;;;;;;;0.53;0.53;;;;;;;21.65;62.79;95564.94;4274543;33;20257;-54
2022/08/01 05:34:12;;;;;;;0.53;0.53;;;;;;;21.65;62.03;95566.88;4264837;33;20195;-55
2022/08/01 05:36:39;;;;;;;0.83;0.70;;;;;;;21.58;62.36;95567.53;4271126;33;20194;-54
2022/08/01 05:39:05;;;;;;;0.53;0.53;;;;;;;21.58;62.58;95567.53;4284573;33;20225;-55
2022/08/01 05:41:32;;;;;;;1.00;1.00;;;;;;;21.67;62.79;95570.78;4276816;33;20199;-55
2022/08/01 05:43:57;;;;;;;1.33;1.17;;;;;;;21.73;62.89;95571.28;4285513;33;20195;-52
2022/08/01 05:46:23;;;;;;;0.70;0.70;;;;;;;21.60;62.85;95573.37;4288536;33;20262;-55
2022/08/01 05:48:48;;;;;;;0.70;0.70;;;;;;;21.75;62.92;95571.69;4273616;33;21720;-55
2022/08/01 05:51:13;;;;;;;0.30;0.30;;;;;;;21.79;63.27;95573.34;4280838;33;20247;-53
2022/08/01 05:53:39;;;;;;;0.33;0.33;;;;;;;21.77;62.75;95581.00;4282393;33;20298;-53
2022/08/01 05:56:05;;;;;;;0.60;0.60;;;;;;;21.73;62.45;95577.47;4284642;33;20254;-54
2022/08/01 05:58:31;;;;;;;1.13;0.40;;;;;;;21.75;61.81;95580.59;4295759;33;20217;-56
2022/08/01 06:00:57;;;;;;;4.53;1.13;;;;;;;21.84;62.76;95580.34;4291189;33;20229;-53
2022/08/01 06:03:23;;;;;;;0.60;0.60;;;;;;;21.78;62.95;95581.78;4272378;33;20206;-55
2022/08/01 06:05:49;;;;;;;0.83;0.83;;;;;;;21.91;62.85;95583.97;4272397;33;20192;-56
2022/08/01 06:08:14;;;;;;;1.63;1.00;;;;;;;21.98;62.90;95586.00;4273753;33;20202;-56
2022/08/01 06:10:40;;;;;;;0.60;0.60;;;;;;;22.07;63.36;95583.88;4269919;33;20241;-56
2022/08/01 06:13:05;;;;;;;1.83;1.13;;;;;;;22.03;62.43;95584.97;4279901;33;20209;-55
2022/08/01 06:15:32;;;;;;;0.97;0.40;;;;;;;22.06;63.25;95592.34;4270979;33;20251;-53
2022/08/01 06:17:57;;;;;;;0.80;0.80;;;;;;;22.00;63.16;95593.75;4286205;33;20213;-54
2022/08/01 06:20:23;;;;;;;0.80;0.80;;;;;;;22.06;63.23;95598.53;4282286;33;20203;-55
2022/08/01 06:22:48;;;;;;;0.73;0.50;;;;;;;22.04;62.09;95594.63;4283798;33;20214;-53
2022/08/01 06:25:13;;;;;;;0.40;0.40;;;;;;;22.02;62.34;95594.22;4282778;33;20187;-54
2022/08/01 06:27:39;;;;;;;0.80;0.80;;;;;;;22.04;62.17;95598.09;4269928;33;20364;-54
2022/08/01 06:30:07;;;;;;;0.70;0.70;;;;;;;22.14;62.13;95597.50;4270318;33;20233;-54
2022/08/01 06:32:33;;;;;;;0.57;0.57;;;;;;;22.12;62.23;95593.59;4282525;33;20250;-56
2022/08/01 06:34:58;;;;;;;1.60;0.73;;;;;;;22.14;62.32;95602.13;4284828;33;20213;-54
2022/08/01 06:37:29;;;;;;;0.23;0.23;;;;;;;22.23;62.30;95591.88;4270666;33;20209;-54
2022/08/01 06:39:54;;;;;;;0.50;0.50;;;;;;;22.24;61.38;95605.00;4279430;33;20186;-56
2022/08/01 06:42:19;;;;;;;0.50;0.50;;;;;;;22.28;61.82;95603.16;4270240;33;20317;-54
2022/08/01 06:44:45;;;;;;;0.27;0.27;;;;;;;22.42;61.95;95607.25;4269723;33;20195;-55
2022/08/01 06:47:10;;;;;;;0.80;0.80;;;;;;;22.50;61.85;95603.50;4283899;33;20218;-55
2022/08/01 06:49:35;;;;;;;0.60;0.60;;;;;;;22.50;59.98;95601.56;4286603;33;20198;-56
2022/08/01 06:52:01;;;;;;;0.87;0.87;;;;;;;22.50;60.63;95606.97;4286974;33;20196;-55
2022/08/01 06:54:26;;;;;;;0.50;0.37;;;;;;;22.51;61.13;95607.75;4278081;33;20190;-54
2022/08/01 06:56:51;;;;;;;0.47;0.47;;;;;;;22.52;61.02;95599.28;4285819;33;20233;-54
2022/08/01 06:59:17;;;;;;;0.40;0.40;;;;;;;22.56;60.51;95604.75;4284896;33;20242;-60
2022/08/01 07:01:42;;;;;;;0.63;0.63;;;;;;;22.64;60.17;95606.44;4284847;33;20312;-61
2022/08/01 07:04:08;;;;;;;0.63;0.63;;;;;;;22.67;59.97;95602.19;4289641;33;20234;-61
2022/08/01 07:06:33;;;;;;;0.60;0.60;;;;;;;22.73;60.09;95606.16;4284453;33;20190;-62
2022/08/01 07:09:00;;;;;;;0.70;0.67;;;;;;;22.76;60.03;95591.91;4285943;33;20194;-61
2022/08/01 07:11:26;;;;;;;0.63;0.63;;;;;;;22.73;60.69;95592.62;4286931;33;20263;-60
2022/08/01 07:13:51;;;;;;;0.70;0.70;;;;;;;22.72;60.35;95593.78;4277752;33;20217;-61
2022/08/01 07:16:16;;;;;;;0.30;0.30;;;;;;;22.74;60.70;95589.56;4256261;33;20212;-61
2022/08/01 07:18:42;;;;;;;0.33;0.33;;;;;;;22.81;60.41;95588.94;4274619;33;20220;-62
2022/08/01 07:21:08;;;;;;;0.77;0.77;;;;;;;22.76;60.21;95598.09;4270699;33;20250;-61
2022/08/01 07:23:34;;;;;;;0.77;0.77;;;;;;;22.82;60.25;95593.19;4272557;33;20258;-61
2022/08/01 07:26:01;;;;;;;0.57;0.57;;;;;;;22.85;59.88;95595.97;4288919;33;20220;-64
2022/08/01 07:28:27;;;;;;;0.33;0.33;;;;;;;22.88;59.94;95589.78;4296073;33;20196;-60
2022/08/01 07:30:53;;;;;;;0.43;0.43;;;;;;;22.81;60.81;95591.62;4284061;33;20221;-61
2022/08/01 07:33:18;;;;;;;0.87;0.87;;;;;;;22.90;59.94;95587.50;4262416;33;20203;-60
2022/08/01 07:35:44;;;;;;;0.60;0.60;;;;;;;22.94;61.17;95591.03;4278163;33;20194;-61
2022/08/01 07:38:09;;;;;;;0.70;0.70;;;;;;;23.04;60.27;95586.16;4264220;33;20194;-62
2022/08/01 07:40:34;;;;;;;0.77;0.77;;;;;;;23.11;59.53;95588.94;4287934;33;20213;-61
2022/08/01 07:43:01;;;;;;;0.30;0.30;;;;;;;23.06;60.36;95583.88;4271213;33;20238;-62
2022/08/01 07:45:26;;;;;;;0.43;0.43;;;;;;;23.12;59.86;95580.47;4286482;33;20194;-61
2022/08/01 07:47:52;;;;;;;0.83;0.80;;;;;;;23.26;59.70;95582.59;4285019;33;20230;-61
2022/08/01 07:50:18;;;;;;;0.40;0.40;;;;;;;23.26;59.07;95583.38;4273182;33;20199;-60
2022/08/01 07:52:44;;;;;;;0.80;0.80;;;;;;;23.32;58.77;95586.50;4283951;33;20210;-61
2022/08/01 07:55:11;;;;;;;0.83;0.83;;;;;;;23.31;59.44;95584.94;4267993;33;20194;-61
2022/08/01 07:57:37;;;;;;;0.70;0.70;;;;;;;23.27;59.92;95584.94;4285106;33;20198;-61
2022/08/01 08:00:07;;;;;;;0.73;0.73;;;;;;;23.29;60.06;95579.13;4281149;33;20234;-61
2022/08/01 08:02:32;;;;;;;0.80;0.80;;;;;;;23.36;60.72;95581.13;4283811;33;20253;-60
2022/08/01 08:04:58;;;;;;;0.70;0.50;;;;;;;23.45;59.76;95584.34;4287152;33;20257;-61
2022/08/01 08:07:23;;;;;;;0.57;0.57;;;;;;;23.53;59.60;95586.78;4271717;33;20195;-61
2022/08/01 08:09:49;;;;;;;1.30;1.30;;;;;;;23.53;59.79;95588.72;4287166;33;24196;-60
2022/08/01 08:12:14;;;;;;;0.90;0.90;;;;;;;23.57;59.08;95586.84;4272945;33;20250;-60
2022/08/01 08:14:39;;;;;;;0.70;0.70;;;;;;;23.51;60.11;95580.16;4273888;33;20272;-58
2022/08/01 08:17:05;;;;;;;0.77;0.77;;;;;;;23.55;59.17;95584.50;4287132;33;20194;-61
2022/08/01 08:19:33;;;;;;;0.70;0.70;;;;;;;23.53;60.24;95580.59;4284253;33;20249;-61
2022/08/01 08:21:59;;;;;;;0.47;0.47;;;;;;;23.58;60.15;95580.28;4274518;33;20203;-61
2022/08/01 08:24:25;;;;;;;0.90;0.90;;;;;;;23.64;59.58;95581.50;4278543;33;20197;-61
2022/08/01 08:26:54;;;;;;;0.30;0.30;;;;;;;23.68;60.24;95579.63;4287277;33;20194;-61
2022/08/01 08:29:21;;;;;;;0.63;0.63;;;;;;;23.78;59.21;95575.44;4285934;33;20314;-61
2022/08/01 08:31:47;;;;;;;1.03;0.93;;;;;;;23.76;59.14;95572.31;4280561;33;20194;-60
2022/08/01 08:34:13;;;;;;;0.37;0.37;;;;;;;23.77;59.02;95580.09;4286315;33;20245;-61
2022/08/01 08:36:38;;;;;;;0.60;0.60;;;;;;;23.81;58.38;95582.84;4278170;33;20206;-61
2022/08/01 08:39:05;;;;;;;1.13;1.13;;;;;;;23.81;59.09;95580.91;4279107;33;20205;-61
2022/08/01 08:41:33;;;;;;;0.47;0.47;;;;;;;23.78;59.73;95573.53;4274700;33;20302;-61
2022/08/01 08:44:01;;;;;;;0.53;0.53;;;;;;;23.80;59.46;95578.56;4288531;33;20182;-60
2022/08/01 08:46:27;;;;;;;0.53;0.53;;;;;;;23.88;58.89;95574.78;4285622;33;20243;-60
2022/08/01 08:48:54;;;;;;;0.70;0.70;;;;;;;23.84;58.70;95574.75;4284469;33;20190;-61
2022/08/01 08:51:23;;;;;;;0.93;0.93;;;;;;;23.77;58.84;95580.09;4285503;33;20361;-61
2022/08/01 08:53:51;;;;;;;0.73;0.73;;;;;;;23.89;58.41;95566.28;4276593;33;20281;-61
2022/08/01 08:56:20;;;;;;;1.03;1.03;;;;;;;23.87;57.55;95568.59;4282208;33;20277;-61
2022/08/01 08:58:46;;;;;;;0.57;0.57;;;;;;;23.93;56.85;95577.91;4287405;33;20195;-60
2022/08/01 09:01:12;;;;;;;0.50;0.50;;;;;;;23.89;57.93;95568.22;4286491;33;20298;-60
2022/08/01 09:03:39;;;;;;;0.60;0.60;;;;;;;23.97;57.82;95578.75;4286945;33;20190;-61
2022/08/01 09:06:05;;;;;;;0.67;0.67;;;;;;;23.97;58.06;95573.31;4275919;33;20234;-60
2022/08/01 09:08:33;;;;;;;1.00;1.00;;;;;;;24.05;58.00;95573.41;4279523;33;20238;-60
2022/08/01 09:10:58;;;;;;;0.90;0.90;;;;;;;24.06;57.87;95564.13;4273262;33;20211;-61
2022/08/01 09:13:24;;;;;;;0.60;0.60;;;;;;;24.01;58.13;95565.22;4282766;33;20205;-60
2022/08/01 09:15:55;;;;;;;0.57;0.40;;;;;;;24.05;59.15;95566.03;4269800;33;20221;-60
2022/08/01 09:18:29;;;;;;;0.60;0.60;;;;;;;24.13;58.45;95572.28;4271889;33;20187;-60
2022/08/01 09:21:06;;;;;;;0.87;0.87;;;;;;;24.21;57.32;95569.28;4287335;33;20265;-60
2022/08/01 09:23:38;;;;;;;0.30;0.30;;;;;;;24.22;58.38;95570.06;4283989;33;20198;-60
2022/08/01 09:26:04;;;;;;;0.73;0.73;;;;;;;24.28;56.81;95568.59;4285451;33;20190;-60
2022/08/01 09:28:30;;;;;;;0.77;0.77;;;;;;;24.39;57.53;95565.97;4286062;33;20201;-61
2022/08/01 09:30:57;;;;;;;0.70;0.70;;;;;;;24.46;56.86;95577.66;4289310;33;20273;-60
2022/08/01 09:33:22;;;;;;;0.83;0.83;;;;;;;24.52;55.71;95565.31;4287084;33;20243;-60
2022/08/01 09:35:55;;;;;;;0.40;0.40;;;;;;;24.55;56.08;95567.25;4290562;33;20198;-60
2022/08/01 09:38:26;;;;;;;0.60;0.60;;;;;;;24.56;56.37;95566.09;4279849;33;20202;-61
2022/08/01 09:41:00;;;;;;;0.43;0.43;;;;;;;24.67;55.00;95564.25;4273837;33;20191;-61
2022/08/01 09:43:27;;;;;;;0.60;0.60;;;;;;;24.64;53.70;95554.12;4290720;33;20190;-61
2022/08/01 09:45:54;;;;;;;0.40;0.40;;;;;;;24.65;54.68;95563.84;4278173;33;20226;-61
2022/08/01 09:48:20;;;;;;;0.30;0.30;;;;;;;24.65;56.05;95552.19;4284161;33;20206;-61
2022/08/01 09:50:48;;;;;;;0.70;0.70;;;;;;;24.71;54.53;95552.63;4286100;33;20201;-61
2022/08/01 09:53:15;;;;;;;0.40;0.40;;;;;;;24.79;54.23;95565.06;4285498;33;20206;-61
2022/08/01 09:55:41;;;;;;;0.87;0.87;;;;;;;24.83;54.29;95557.72;4285783;33;20305;-61
2022/08/01 09:58:07;;;;;;;0.30;0.30;;;;;;;24.88;53.40;95560.88;4285774;33;20191;-61
2022/08/01 10:00:34;;;;;;;0.40;0.40;;;;;;;24.89;53.73;95556.22;4273192;33;20233;-61
2022/08/01 10:03:22;;;;;;;0.37;0.37;;;;;;;24.96;53.60;95557.06;4279618;33;20190;-60
2022/08/01 10:05:48;;;;;;;0.77;0.77;;;;;;;24.97;52.83;95555.13;4262117;33;20281;-60
2022/08/01 10:08:14;;;;;;;0.80;0.80;;;;;;;25.02;53.47;95554.75;4272202;33;20218;-60
2022/08/01 10:10:40;;;;;;;0.20;0.20;;;;;;;25.04;52.62;95549.72;4272769;33;20250;-61
2022/08/01 10:13:06;;;;;;;0.47;0.47;;;;;;;25.05;53.30;95543.16;4271104;33;20313;-61
2022/08/01 10:15:32;;;;;;;0.30;0.30;;;;;;;25.17;53.09;95550.16;4283859;33;20234;-61
2022/08/01 10:18:00;;;;;;;2.10;0.53;;;;;;;25.21;53.07;95546.31;4284649;33;20213;-61
2022/08/01 10:20:32;;;;;;;0.57;0.57;;;;;;;25.30;53.08;95537.81;4284888;33;20194;-61
2022/08/01 10:23:00;;;;;;;0.67;0.67;;;;;;;25.31;53.45;95542.87;4283276;33;20233;-62
2022/08/01 10:25:28;;;;;;;0.10;0.10;;;;;;;25.41;52.71;95546.00;4284902;33;20182;-60
2022/08/01 10:27:54;;;;;;;0.50;0.50;;;;;;;25.42;52.67;95547.56;4285015;33;20210;-60
2022/08/01 10:30:21;;;;;;;0.87;0.87;;;;;;;25.38;53.11;95539.38;4271004;33;20213;-60
2022/08/01 10:32:47;;;;;;;0.67;0.67;;;;;;;25.44;51.88;95547.97;4277705;33;20194;-60
2022/08/01 10:35:16;;;;;;;0.37;0.37;;;;;;;25.46;51.32;95546.41;4270777;33;20250;-60
2022/08/01 10:37:44;;;;;;;0.30;0.30;;;;;;;25.50;51.67;95536.34;4284166;33;20198;-60
2022/08/01 10:40:14;;;;;;;1.87;1.77;;;;;;;25.47;51.75;95528.94;4283971;33;20186;-60
2022/08/01 10:42:44;;;;;;;0.50;0.40;;;;;;;25.53;52.16;95529.38;4283723;33;20191;-60
2022/08/01 10:45:12;;;;;;;0.50;0.50;;;;;;;25.57;52.15;95530.12;4273237;33;20191;-60
2022/08/01 10:47:44;;;;;;;0.20;0.20;;;;;;;25.52;51.35;95538.69;4281854;33;20209;-61
2022/08/01 10:50:29;;;;;;;0.23;0.23;;;;;;;25.62;52.02;95536.00;4269258;33;20207;-60
2022/08/01 10:53:19;;;;;;;0.30;0.30;;;;;;;25.60;51.48;95535.56;4271203;33;20295;-61
2022/08/01 10:56:00;;;;;;;0.40;0.40;;;;;;;25.74;50.32;95524.00;4290239;33;20241;-60
2022/08/01 10:58:36;;;;;;;0.47;0.47;;;;;;;25.59;51.33;95533.25;4284076;33;20215;-60
2022/08/01 11:01:18;;;;;;;0.40;0.40;;;;;;;25.45;51.77;95527.78;4283390;33;20202;-62
2022/08/01 11:03:56;;;;;;;0.50;0.50;;;;;;;25.45;52.46;95519.63;4280549;33;20232;-61
2022/08/01 11:06:44;;;;;;;0.40;0.40;;;;;;;25.74;50.22;95517.78;4281623;33;20257;-61
2022/08/01 11:09:09;;;;;;;0.47;0.47;;;;;;;25.71;50.45;95521.28;4278767;33;20187;-60
2022/08/01 11:12:00;;;;;;;0.60;0.60;;;;;;;25.74;51.24;95518.56;4284461;33;20234;-61
2022/08/01 11:14:26;;;;;;;0.40;0.40;;;;;;;25.75;51.02;95509.25;4283203;33;20209;-60
2022/08/01 11:16:51;;;;;;;0.13;0.13;;;;;;;25.78;51.70;95513.91;4281966;33;20194;-61
2022/08/01 11:19:16;;;;;;;0.20;0.20;;;;;;;25.72;51.98;95515.47;4283307;33;21346;-61
2022/08/01 11:22:02;;;;;;;0.30;0.30;;;;;;;25.68;51.34;95517.38;4281442;33;20269;-60
2022/08/01 11:24:46;;;;;;;0.60;0.60;;;;;;;25.65;51.42;95512.72;4267979;33;20217;-63
2022/08/01 11:27:25;;;;;;;0.73;0.73;;;;;;;25.66;50.99;95506.91;4270693;33;20242;-61
2022/08/01 11:30:09;;;;;;;0.20;0.20;;;;;;;25.63;51.66;95502.22;4270713;33;20241;-61
2022/08/01 11:32:51;;;;;;;0.63;0.63;;;;;;;25.67;49.32;95502.25;4289057;33;20186;-61
2022/08/01 11:35:17;;;;;;;0.33;0.33;;;;;;;25.81;49.34;95496.81;4284679;33;20198;-60
2022/08/01 11:37:43;;;;;;;0.90;0.90;;;;;;;25.84;49.51;95506.13;4287416;33;20190;-61
2022/08/01 11:40:34;;;;;;;5.53;1.10;;;;;;;25.83;50.06;95494.47;4282264;33;20242;-60